createdAt,value
2023-01-20T00:01:39.920Z,73.70
2023-01-20T00:04:07.235Z,74.50
2023-01-20T00:06:34.925Z,73.70
2023-01-20T00:09:04.657Z,73.70
2023-01-20T00:11:32.750Z,73.70
2023-01-20T00:14:02.213Z,73.70
2023-01-20T00:16:31.994Z,73.60
2023-01-20T00:18:59.550Z,73.60
2023-01-20T00:21:26.979Z,73.60
2023-01-20T00:23:54.588Z,73.60
2023-01-20T00:26:24.595Z,73.60
2023-01-20T00:28:54.903Z,73.60
2023-01-20T00:31:24.952Z,73.70
2023-01-20T00:33:54.619Z,73.70
2023-01-20T00:36:23.516Z,73.70
2023-01-20T00:38:51.101Z,73.70
2023-01-20T00:41:19.190Z,73.90
2023-01-20T00:43:46.720Z,74.00
2023-01-20T00:46:15.135Z,74.10
2023-01-20T00:48:42.688Z,74.10
2023-01-20T00:51:10.874Z,74.10
2023-01-20T00:53:38.560Z,74.00
2023-01-20T00:56:07.082Z,74.00
2023-01-20T00:58:34.671Z,74.00
2023-01-20T01:01:02.896Z,73.90
2023-01-20T01:03:30.334Z,73.90
2023-01-20T01:06:13.408Z,73.90
2023-01-20T01:08:41.596Z,73.90
2023-01-20T01:11:10.352Z,73.90
2023-01-20T01:13:38.595Z,73.90
2023-01-20T01:16:12.012Z,73.90
2023-01-20T01:18:39.632Z,74.70
2023-01-20T01:21:13.234Z,73.90
2023-01-20T01:23:40.617Z,73.90
2023-01-20T01:26:08.612Z,73.90
2023-01-20T01:28:36.129Z,73.90
2023-01-20T01:31:06.112Z,73.90
2023-01-20T01:33:34.507Z,74.00
2023-01-20T01:36:03.600Z,74.00
2023-01-20T01:38:31.142Z,74.00
2023-01-20T01:40:58.544Z,74.10
2023-01-20T01:43:35.698Z,74.00
2023-01-20T01:46:04.134Z,74.10
2023-01-20T01:48:43.262Z,74.10
2023-01-20T01:51:18.193Z,74.20
2023-01-20T01:53:53.573Z,74.30
2023-01-20T01:56:22.633Z,74.30
2023-01-20T01:58:53.200Z,74.40
2023-01-20T02:01:21.106Z,74.40
2023-01-20T02:03:54.425Z,74.40
2023-01-20T02:06:24.479Z,74.40
2023-01-20T02:08:52.088Z,74.50
2023-01-20T02:11:19.535Z,74.50
2023-01-20T02:13:47.220Z,74.50
2023-01-20T02:16:23.633Z,74.60
2023-01-20T02:19:12.531Z,74.60
2023-01-20T02:21:58.138Z,74.70
2023-01-20T02:25:04.225Z,74.70
2023-01-20T02:27:57.401Z,74.70
2023-01-20T02:30:50.554Z,74.70
2023-01-20T02:33:47.266Z,74.70
2023-01-20T02:36:26.196Z,74.80
2023-01-20T02:39:27.696Z,74.80
2023-01-20T02:42:09.175Z,74.80
2023-01-20T02:44:57.659Z,74.80
2023-01-20T02:47:37.557Z,74.90
2023-01-20T02:50:15.951Z,74.90
2023-01-20T02:52:47.722Z,75.00
2023-01-20T02:55:43.995Z,75.00
2023-01-20T02:58:20.365Z,75.00
2023-01-20T03:00:53.023Z,75.20
2023-01-20T03:03:28.432Z,75.30
2023-01-20T03:05:59.335Z,75.30
2023-01-20T03:08:29.825Z,75.20
2023-01-20T03:11:03.094Z,75.30
2023-01-20T03:13:36.439Z,75.30
2023-01-20T03:16:10.496Z,75.40
2023-01-20T03:18:39.122Z,75.40
2023-01-20T03:21:09.153Z,75.50
2023-01-20T03:23:40.296Z,75.60
2023-01-20T03:26:10.814Z,75.60
2023-01-20T03:28:38.271Z,75.70
2023-01-20T03:31:28.508Z,75.70
2023-01-20T03:34:02.100Z,75.70
2023-01-20T03:36:31.556Z,75.80
2023-01-20T03:38:59.353Z,75.70
2023-01-20T03:41:54.687Z,75.80
2023-01-20T03:44:46.727Z,75.80
2023-01-20T03:47:41.919Z,75.80
2023-01-20T03:50:40.900Z,75.80
2023-01-20T03:53:45.478Z,75.80
2023-01-20T03:56:28.113Z,75.80
2023-01-20T03:58:57.938Z,75.80
2023-01-20T04:01:34.183Z,75.80
2023-01-20T04:04:04.206Z,75.90
2023-01-20T04:06:33.613Z,75.90
2023-01-20T04:09:04.981Z,75.90
2023-01-20T04:11:33.179Z,76.00
2023-01-20T04:14:00.740Z,76.10
2023-01-20T04:16:28.217Z,76.00
2023-01-20T04:18:55.725Z,76.10
2023-01-20T04:21:35.359Z,76.00
2023-01-20T04:24:34.563Z,76.00
2023-01-20T04:27:01.927Z,76.10
2023-01-20T04:29:29.176Z,76.10
2023-01-20T04:32:03.658Z,76.10
2023-01-20T04:34:31.189Z,76.10
2023-01-20T04:36:58.516Z,76.00
2023-01-20T04:39:25.731Z,76.00
2023-01-20T04:41:53.408Z,76.00
2023-01-20T04:44:20.872Z,75.90
2023-01-20T04:46:48.385Z,75.90
2023-01-20T04:49:15.764Z,75.90
2023-01-20T04:51:43.186Z,75.90
2023-01-20T04:54:11.537Z,75.90
2023-01-20T04:56:38.942Z,75.90
2023-01-20T04:59:06.219Z,75.90
2023-01-20T05:01:33.741Z,75.90
2023-01-20T05:04:01.087Z,75.90
2023-01-20T05:06:28.537Z,76.00
2023-01-20T05:08:55.936Z,75.90
2023-01-20T05:11:23.390Z,75.80
2023-01-20T05:13:50.760Z,75.90
2023-01-20T05:16:24.940Z,76.20
2023-01-20T05:18:52.285Z,75.90
2023-01-20T05:21:19.632Z,75.80
2023-01-20T05:23:47.079Z,75.90
2023-01-20T05:26:14.572Z,75.90
2023-01-20T05:28:44.251Z,75.90
2023-01-20T05:31:11.808Z,75.90
2023-01-20T05:33:39.846Z,75.90
2023-01-20T05:36:08.286Z,75.90
2023-01-20T05:38:36.524Z,75.90
2023-01-20T05:41:06.156Z,75.90
2023-01-20T05:43:33.770Z,75.90
2023-01-20T05:46:01.377Z,75.90
2023-01-20T05:48:28.829Z,75.90
2023-01-20T05:50:56.184Z,76.00
2023-01-20T05:53:24.129Z,76.00
2023-01-20T05:56:00.767Z,76.10
2023-01-20T05:58:29.254Z,76.10
2023-01-20T06:01:05.299Z,76.00
2023-01-20T06:03:33.123Z,76.10
2023-01-20T06:06:02.163Z,76.10
2023-01-20T06:08:29.715Z,76.00
2023-01-20T06:10:57.224Z,76.00
2023-01-20T06:13:24.802Z,76.10
2023-01-20T06:15:53.595Z,76.10
2023-01-20T06:18:22.032Z,76.10
2023-01-20T06:20:49.693Z,76.20
2023-01-20T06:23:18.820Z,76.20
2023-01-20T06:25:46.293Z,76.20
2023-01-20T06:28:13.686Z,76.20
2023-01-20T06:30:43.494Z,76.30
2023-01-20T06:33:10.892Z,76.20
2023-01-20T06:35:38.591Z,76.30
2023-01-20T06:38:06.122Z,76.20
2023-01-20T06:40:33.525Z,76.20
2023-01-20T06:43:01.058Z,76.20
2023-01-20T06:45:29.589Z,76.20
2023-01-20T06:47:56.957Z,76.10
2023-01-20T06:50:24.363Z,76.00
2023-01-20T06:52:53.700Z,76.00
2023-01-20T06:55:21.325Z,76.10
2023-01-20T06:57:48.679Z,76.20
2023-01-20T07:00:16.603Z,76.10
2023-01-20T07:02:43.989Z,76.10
2023-01-20T07:05:11.430Z,76.00
2023-01-20T07:07:39.027Z,76.10
2023-01-20T07:10:06.855Z,76.10
2023-01-20T07:12:34.225Z,76.20
2023-01-20T07:15:01.687Z,76.30
2023-01-20T07:17:29.026Z,76.30
2023-01-20T07:19:56.419Z,76.30
2023-01-20T07:22:23.864Z,76.20
2023-01-20T07:24:51.631Z,76.20
2023-01-20T07:27:19.267Z,76.20
2023-01-20T07:29:46.647Z,76.20
2023-01-20T07:32:14.081Z,76.30
2023-01-20T07:34:41.614Z,76.30
2023-01-20T07:37:09.184Z,76.40
2023-01-20T07:39:36.409Z,76.30
2023-01-20T07:42:03.804Z,76.30
2023-01-20T07:44:32.308Z,76.50
2023-01-20T07:46:59.702Z,76.60
2023-01-20T07:49:27.305Z,76.60
2023-01-20T07:51:54.743Z,76.70
2023-01-20T07:54:22.216Z,76.70
2023-01-20T07:56:49.632Z,76.70
2023-01-20T07:59:17.022Z,76.80
2023-01-20T08:01:44.774Z,76.90
2023-01-20T08:04:13.132Z,76.90
2023-01-20T08:06:40.517Z,77.00
2023-01-20T08:09:12.059Z,77.10
2023-01-20T08:11:39.585Z,77.20
2023-01-20T08:14:07.513Z,76.90
2023-01-20T08:16:35.068Z,76.70
2023-01-20T08:19:02.548Z,76.70
2023-01-20T08:21:31.794Z,76.60
2023-01-20T08:24:00.913Z,76.60
2023-01-20T08:26:29.773Z,76.60
2023-01-20T08:29:06.542Z,76.60
2023-01-20T08:31:34.723Z,76.50
2023-01-20T08:34:02.369Z,76.40
2023-01-20T08:36:33.344Z,76.50
2023-01-20T08:39:04.055Z,76.10
2023-01-20T08:41:34.328Z,75.90
2023-01-20T08:44:04.463Z,75.80
2023-01-20T08:46:32.495Z,75.70
2023-01-20T08:49:00.055Z,75.70
2023-01-20T08:51:30.829Z,75.80
2023-01-20T08:53:59.010Z,75.70
2023-01-20T08:56:27.725Z,75.60
2023-01-20T08:58:57.293Z,75.50
2023-01-20T09:01:27.995Z,75.40
2023-01-20T09:04:05.250Z,75.40
2023-01-20T09:06:40.926Z,75.40
2023-01-20T09:09:08.498Z,75.50
2023-01-20T09:11:36.417Z,75.60
2023-01-20T09:14:03.940Z,75.50
2023-01-20T09:16:31.559Z,75.30
2023-01-20T09:18:58.948Z,75.20
2023-01-20T09:21:26.482Z,75.20
2023-01-20T09:23:54.338Z,75.10
2023-01-20T09:26:34.892Z,75.00
2023-01-20T09:29:09.198Z,75.00
2023-01-20T09:31:39.513Z,74.90
2023-01-20T09:34:07.824Z,74.90
2023-01-20T09:36:35.397Z,74.90
2023-01-20T09:39:21.377Z,74.90
2023-01-20T09:42:24.737Z,74.80
2023-01-20T09:45:24.907Z,74.90
2023-01-20T09:48:02.059Z,74.40
2023-01-20T09:51:01.109Z,74.30
2023-01-20T09:53:36.194Z,74.00
2023-01-20T09:56:16.911Z,74.10
2023-01-20T09:59:09.353Z,73.70
2023-01-20T10:01:46.534Z,73.50
2023-01-20T10:04:36.030Z,73.30
2023-01-20T10:07:24.649Z,73.00
2023-01-20T10:10:24.073Z,72.90
2023-01-20T10:13:03.753Z,73.70
2023-01-20T10:15:36.264Z,72.70
2023-01-20T10:18:12.365Z,72.70
2023-01-20T10:20:47.006Z,72.50
2023-01-20T10:23:21.929Z,72.10
2023-01-20T10:26:01.619Z,71.80
2023-01-20T10:28:32.283Z,71.50
2023-01-20T10:31:04.303Z,71.40
2023-01-20T10:33:44.960Z,71.40
2023-01-20T10:36:24.102Z,71.30
2023-01-20T10:38:58.088Z,71.30
2023-01-20T10:41:31.502Z,71.30
2023-01-20T10:43:59.945Z,71.00
2023-01-20T10:46:54.821Z,71.30
2023-01-20T10:49:49.500Z,71.10
2023-01-20T10:52:19.670Z,71.10
2023-01-20T10:55:24.207Z,71.30
2023-01-20T10:57:59.064Z,71.00
2023-01-20T11:00:30.076Z,71.30
2023-01-20T11:02:59.906Z,71.20
2023-01-20T11:05:41.147Z,71.20
2023-01-20T11:08:16.363Z,71.30
2023-01-20T11:10:44.775Z,71.40
2023-01-20T11:13:12.816Z,71.40
2023-01-20T11:15:53.848Z,71.40
2023-01-20T11:18:27.857Z,71.10
2023-01-20T11:21:04.877Z,71.20
2023-01-20T11:23:47.465Z,71.00
2023-01-20T11:26:27.698Z,71.00
2023-01-20T11:29:03.946Z,71.10
2023-01-20T11:31:48.358Z,71.10
2023-01-20T11:34:22.077Z,70.80
2023-01-20T11:36:51.100Z,70.40
2023-01-20T11:39:51.495Z,70.60
2023-01-20T11:42:30.597Z,70.90
2023-01-20T11:45:20.957Z,71.10
2023-01-20T11:48:00.410Z,71.40
2023-01-20T11:50:45.254Z,71.60
2023-01-20T11:53:35.554Z,71.70
2023-01-20T11:56:24.801Z,71.40
2023-01-20T11:59:01.848Z,71.40
2023-01-20T12:01:48.822Z,71.40
2023-01-20T12:04:35.368Z,71.40
2023-01-20T12:07:11.200Z,71.10
2023-01-20T12:09:45.281Z,71.30
2023-01-20T12:12:15.640Z,71.40
2023-01-20T12:15:03.551Z,71.30
2023-01-20T12:17:48.776Z,71.00
2023-01-20T12:20:54.019Z,70.70
2023-01-20T12:23:45.545Z,70.40
2023-01-20T12:26:15.279Z,70.00
2023-01-20T12:28:59.648Z,70.30
2023-01-20T12:31:27.133Z,70.60
2023-01-20T12:34:04.134Z,70.70
2023-01-20T12:36:54.980Z,70.30
2023-01-20T12:39:45.249Z,70.60
2023-01-20T12:42:21.483Z,70.10
2023-01-20T12:45:25.014Z,70.30
2023-01-20T12:48:10.255Z,69.80
2023-01-20T12:50:37.618Z,69.50
2023-01-20T12:53:10.240Z,69.50
2023-01-20T12:56:06.425Z,69.40
2023-01-20T12:58:53.938Z,69.00
2023-01-20T13:01:40.974Z,69.20
2023-01-20T13:04:36.252Z,69.30
2023-01-20T13:07:29.137Z,69.00
2023-01-20T13:10:02.963Z,69.10
2023-01-20T13:13:11.665Z,69.30
2023-01-20T13:15:53.865Z,68.90
2023-01-20T13:18:55.771Z,69.00
2023-01-20T13:21:23.461Z,69.00
2023-01-20T13:23:52.383Z,69.00
2023-01-20T13:26:20.566Z,68.90
2023-01-20T13:28:56.416Z,68.60
2023-01-20T13:31:43.008Z,68.40
2023-01-20T13:34:22.645Z,68.40
2023-01-20T13:37:10.086Z,68.50
2023-01-20T13:39:46.706Z,68.40
2023-01-20T13:42:37.261Z,68.70
2023-01-20T13:45:24.535Z,68.40
2023-01-20T13:48:01.069Z,68.30
2023-01-20T13:50:39.545Z,68.50
2023-01-20T13:53:15.829Z,68.60
2023-01-20T13:55:44.438Z,68.90
2023-01-20T13:58:14.390Z,68.80
2023-01-20T14:00:42.273Z,68.70
2023-01-20T14:03:19.371Z,68.80
2023-01-20T14:05:51.874Z,68.60
2023-01-20T14:08:20.746Z,68.80
2023-01-20T14:10:48.325Z,68.70
2023-01-20T14:13:19.449Z,68.80
2023-01-20T14:15:53.122Z,68.80
2023-01-20T14:18:22.808Z,68.80
2023-01-20T14:20:58.811Z,69.10
2023-01-20T14:23:37.813Z,69.00
2023-01-20T14:26:22.192Z,68.90
2023-01-20T14:28:51.861Z,69.00
2023-01-20T14:31:22.831Z,69.10
2023-01-20T14:33:54.959Z,69.30
2023-01-20T14:36:24.594Z,69.30
2023-01-20T14:38:58.764Z,69.30
2023-01-20T14:41:28.168Z,69.40
2023-01-20T14:43:56.266Z,69.60
2023-01-20T14:46:25.196Z,69.70
2023-01-20T14:48:54.626Z,69.80
2023-01-20T14:51:23.020Z,69.90
2023-01-20T14:54:30.228Z,70.00
2023-01-20T14:56:59.272Z,70.10
2023-01-20T14:59:27.040Z,70.00
2023-01-20T15:01:58.917Z,70.20
2023-01-20T15:04:26.406Z,70.20
2023-01-20T15:06:58.275Z,70.40
2023-01-20T15:09:27.867Z,70.50
2023-01-20T15:12:31.447Z,70.60
2023-01-20T15:15:31.418Z,70.80
2023-01-20T15:18:22.914Z,70.90
2023-01-20T15:21:03.790Z,71.10
2023-01-20T15:23:35.747Z,71.20
2023-01-20T15:26:22.330Z,71.10
2023-01-20T15:28:49.870Z,71.00
2023-01-20T15:31:17.678Z,71.10
2023-01-20T15:33:45.213Z,71.20
2023-01-20T15:36:28.985Z,71.30
2023-01-20T15:38:56.292Z,71.40
2023-01-20T15:41:24.339Z,71.50
2023-01-20T15:43:52.422Z,71.60
2023-01-20T15:46:19.909Z,71.70
2023-01-20T15:48:47.370Z,71.80
2023-01-20T15:51:17.192Z,71.90
2023-01-20T15:53:45.414Z,72.00
2023-01-20T15:56:25.137Z,72.20
2023-01-20T15:58:52.867Z,72.50
2023-01-20T16:01:25.732Z,72.50
2023-01-20T16:03:55.188Z,72.50
2023-01-20T16:06:27.882Z,72.50
2023-01-20T16:08:55.453Z,72.40
2023-01-20T16:11:22.771Z,72.60
2023-01-20T16:13:50.101Z,72.90
2023-01-20T16:16:19.345Z,73.20
2023-01-20T16:18:47.606Z,73.40
2023-01-20T16:21:19.321Z,73.70
2023-01-20T16:23:46.537Z,74.00
2023-01-20T16:26:24.780Z,73.90
2023-01-20T16:28:54.328Z,73.90
2023-01-20T16:31:23.049Z,73.80
2023-01-20T16:33:51.635Z,73.80
2023-01-20T16:36:21.288Z,73.80
2023-01-20T16:38:49.740Z,74.00
2023-01-20T16:41:22.757Z,74.10
2023-01-20T16:43:52.133Z,74.20
2023-01-20T16:46:28.198Z,74.30
2023-01-20T16:49:03.310Z,74.40
2023-01-20T16:51:31.732Z,74.30
2023-01-20T16:53:59.571Z,74.30
2023-01-20T16:56:29.598Z,74.50
2023-01-20T16:58:59.536Z,74.50
2023-01-20T17:01:28.961Z,74.50
2023-01-20T17:04:01.729Z,74.40
2023-01-20T17:06:31.481Z,74.40
2023-01-20T17:09:00.763Z,74.30
2023-01-20T17:11:30.804Z,74.10
2023-01-20T17:14:00.382Z,74.00
2023-01-20T17:16:27.770Z,74.00
2023-01-20T17:18:58.530Z,73.90
2023-01-20T17:21:28.610Z,73.90
2023-01-20T17:24:00.831Z,74.50
2023-01-20T17:26:28.977Z,73.60
2023-01-20T17:28:58.353Z,73.40
2023-01-20T17:31:25.975Z,73.30
2023-01-20T17:33:53.857Z,73.20
2023-01-20T17:36:21.310Z,73.10
2023-01-20T17:38:48.722Z,73.10
2023-01-20T17:41:16.114Z,73.20
2023-01-20T17:43:48.294Z,73.10
2023-01-20T17:46:18.118Z,73.30
2023-01-20T17:48:46.394Z,73.40
2023-01-20T17:51:25.314Z,73.60
2023-01-20T17:53:53.457Z,74.00
2023-01-20T17:56:22.670Z,74.20
2023-01-20T17:58:50.496Z,74.50
2023-01-20T18:01:20.585Z,74.80
2023-01-20T18:03:50.610Z,75.00
2023-01-20T18:06:20.315Z,75.00
2023-01-20T18:08:52.944Z,75.00
2023-01-20T18:11:22.762Z,75.10
2023-01-20T18:13:55.223Z,75.00
2023-01-20T18:16:26.273Z,75.00
2023-01-20T18:18:58.362Z,74.90
2023-01-20T18:21:31.767Z,74.80
2023-01-20T18:24:00.446Z,74.80
2023-01-20T18:26:29.941Z,75.00
2023-01-20T18:28:59.547Z,74.90
2023-01-20T18:31:29.847Z,74.90
2023-01-20T18:34:06.632Z,75.00
2023-01-20T18:36:36.894Z,75.00
2023-01-20T18:39:11.859Z,75.00
2023-01-20T18:41:40.135Z,74.90
2023-01-20T18:44:07.940Z,74.70
2023-01-20T18:46:35.695Z,74.70
2023-01-20T18:49:05.097Z,74.70
2023-01-20T18:51:33.326Z,74.60
2023-01-20T18:54:05.699Z,74.60
2023-01-20T18:56:33.956Z,74.70
2023-01-20T18:59:02.336Z,74.70
2023-01-20T19:01:33.759Z,74.70
2023-01-20T19:04:02.826Z,74.80
2023-01-20T19:06:34.232Z,74.70
2023-01-20T19:09:02.434Z,74.60
2023-01-20T19:11:34.231Z,74.50
2023-01-20T19:14:02.740Z,74.30
2023-01-20T19:16:33.157Z,74.70
2023-01-20T19:19:02.582Z,74.20
2023-01-20T19:21:32.398Z,74.20
2023-01-20T19:24:05.604Z,74.10
2023-01-20T19:26:35.610Z,74.00
2023-01-20T19:29:06.353Z,73.90
2023-01-20T19:31:36.570Z,74.00
2023-01-20T19:34:04.499Z,74.10
2023-01-20T19:36:32.980Z,74.30
2023-01-20T19:39:00.948Z,74.40
2023-01-20T19:41:34.180Z,74.40
2023-01-20T19:44:03.428Z,74.40
2023-01-20T19:46:33.915Z,74.40
2023-01-20T19:49:02.277Z,74.30
2023-01-20T19:51:31.327Z,74.20
2023-01-20T19:54:00.971Z,74.10
2023-01-20T19:56:30.671Z,74.10
2023-01-20T19:59:00.634Z,74.10
2023-01-20T20:01:31.771Z,74.10
2023-01-20T20:04:03.668Z,74.00
2023-01-20T20:06:33.940Z,74.20
2023-01-20T20:09:04.934Z,74.20
2023-01-20T20:11:32.744Z,74.20
2023-01-20T20:14:02.343Z,74.20
2023-01-20T20:16:32.511Z,74.10
2023-01-20T20:19:00.310Z,73.80
2023-01-20T20:21:28.136Z,73.70
2023-01-20T20:23:57.406Z,73.90
2023-01-20T20:26:29.615Z,74.00
2023-01-20T20:28:59.843Z,74.10
2023-01-20T20:31:29.317Z,74.10
2023-01-20T20:33:58.994Z,74.10
2023-01-20T20:36:28.549Z,74.20
2023-01-20T20:38:57.706Z,74.00
2023-01-20T20:41:28.685Z,73.80
2023-01-20T20:43:56.654Z,73.80
2023-01-20T20:46:25.104Z,73.80
2023-01-20T20:48:59.225Z,73.90
2023-01-20T20:51:28.453Z,74.00
2023-01-20T20:53:57.718Z,74.10
2023-01-20T20:56:27.831Z,74.10
2023-01-20T20:59:02.015Z,74.20
2023-01-20T21:01:33.201Z,74.40
2023-01-20T21:04:04.383Z,74.50
2023-01-20T21:06:32.552Z,74.70
2023-01-20T21:09:00.260Z,74.70
2023-01-20T21:11:28.572Z,74.80
2023-01-20T21:13:56.285Z,74.80
2023-01-20T21:16:24.856Z,74.80
2023-01-20T21:18:56.049Z,74.90
2023-01-20T21:21:24.766Z,74.90
2023-01-20T21:23:54.674Z,74.80
2023-01-20T21:26:23.760Z,74.70
2023-01-20T21:28:51.332Z,74.60
2023-01-20T21:31:21.533Z,74.40
2023-01-20T21:33:56.977Z,74.50
2023-01-20T21:36:25.747Z,74.50
2023-01-20T21:38:53.153Z,74.50
2023-01-20T21:41:20.828Z,74.70
2023-01-20T21:44:06.925Z,74.80
2023-01-20T21:46:39.893Z,74.90
2023-01-20T21:49:26.987Z,74.90
2023-01-20T21:52:14.134Z,74.70
2023-01-20T21:54:44.707Z,74.70
2023-01-20T21:57:12.299Z,74.70
2023-01-20T21:59:39.671Z,74.50
2023-01-20T22:02:08.239Z,74.50
2023-01-20T22:04:35.809Z,74.50
2023-01-20T22:07:03.250Z,74.60
2023-01-20T22:09:30.828Z,74.70
2023-01-20T22:11:58.230Z,74.60
2023-01-20T22:14:26.008Z,74.70
2023-01-20T22:16:53.688Z,74.70
2023-01-20T22:19:21.392Z,74.80
2023-01-20T22:21:48.829Z,74.70
2023-01-20T22:24:16.549Z,74.80
2023-01-20T22:26:51.410Z,74.80
2023-01-20T22:29:19.271Z,74.80
2023-01-20T22:31:47.454Z,74.90
2023-01-20T22:34:14.876Z,74.90
2023-01-20T22:36:42.519Z,75.80
2023-01-20T22:39:10.773Z,75.10
2023-01-20T22:41:38.610Z,74.90
2023-01-20T22:44:06.225Z,74.90
2023-01-20T22:46:33.797Z,75.00
2023-01-20T22:49:01.267Z,75.00
2023-01-20T22:51:30.182Z,75.00
2023-01-20T22:53:59.996Z,75.00
2023-01-20T22:56:32.128Z,75.00
2023-01-20T22:59:00.670Z,75.00
2023-01-20T23:01:31.328Z,75.00
2023-01-20T23:04:01.428Z,74.90
2023-01-20T23:06:32.461Z,74.80
2023-01-20T23:09:01.288Z,74.70
2023-01-20T23:11:28.919Z,74.60
2023-01-20T23:13:56.488Z,74.70
2023-01-20T23:16:24.484Z,74.90
2023-01-20T23:18:52.287Z,74.90
2023-01-20T23:21:20.537Z,74.90
2023-01-20T23:23:54.065Z,74.70
2023-01-20T23:26:29.879Z,74.70
2023-01-20T23:28:57.873Z,74.70
2023-01-20T23:31:25.870Z,74.80
2023-01-20T23:33:54.051Z,74.90
2023-01-20T23:36:26.109Z,75.10
2023-01-20T23:38:55.535Z,75.10
2023-01-20T23:41:23.618Z,75.00
2023-01-20T23:43:51.268Z,75.70
2023-01-20T23:46:18.923Z,75.00
2023-01-20T23:48:46.880Z,75.10
2023-01-20T23:51:15.091Z,75.30
2023-01-20T23:53:42.724Z,75.40
2023-01-20T23:56:17.018Z,75.50
2023-01-20T23:58:45.244Z,75.60
